Latest Weather Observations for Port Fairy

IDV60801

Issued at 9:12 pm EDT Sunday 16 December 2018 (issued every 10 minutes, with the page automatically refreshed every 10 minutes)

About weather observations | Map of weather stations | Latest weather observations for VIC | Other Formats
Station Details ID: 090175 Name: PORT FAIRY AWS Lat: -38.39 Lon: 142.23 Height: 10.0 m
Data from the previous 72 hours. | See also: Recent months at Port Fairy
Date/Time
EDT
Temp
°C
App
Temp
°C
Dew
Point
°C
Rel
Hum
%
Delta-T
°C
Wind Press
QNH
hPa
Press
MSL
hPa
Rain since
9am
mm
Dir  Spd
km/h
Gust
km/h
Spd
kts
Gust
kts
16/09:00pm 15.9 16.9 14.4 91 0.9 S 2 6 1 3 1008.2 1008.2 0.0
16/08:30pm 16.3 16.5 14.7 90 0.9 SE 7 11 4 6 1007.4 1007.4 0.0
16/08:00pm 16.6 16.5 15.0 90 0.9 S 9 13 5 7 1007.4 1007.4 0.0
16/07:30pm 17.1 17.4 15.1 88 1.2 S 7 13 4 7 1007.1 1007.1 0.0
16/07:00pm 16.9 16.4 14.9 88 1.2 S 11 17 6 9 1006.7 1006.7 0.0
16/06:30pm 17.8 16.3 15.4 86 1.4 S 17 24 9 13 1006.4 1006.4 0.0
16/06:00pm 17.8 15.5 15.6 87 1.3 SSW 22 32 12 17 1006.0 1006.0 0.0
16/05:30pm 19.2 16.3 16.2 83 1.8 SSW 26 33 14 18 1005.7 1005.7 0.0
16/05:00pm 20.7 21.3 16.9 79 2.3 S 9 13 5 7 1005.4 1005.4 0.0
16/04:30pm 20.9 21.3 16.3 75 2.8 SSE 9 13 5 7 1005.3 1005.3 0.0
16/04:00pm 21.2 20.9 15.5 70 3.4 SE 11 13 6 7 1004.7 1004.7 0.0
16/03:30pm 21.0 21.3 15.1 69 3.5 SSE 7 9 4 5 1004.6 1004.6 0.0
16/03:00pm 20.4 20.8 16.2 77 2.5 SSE 9 13 5 7 1004.9 1004.9 0.0
16/02:30pm 20.7 20.9 16.7 78 2.4 SE 11 17 6 9 1005.1 1005.1 0.0
16/02:00pm 19.9 19.9 16.2 79 2.2 SSE 11 15 6 8 1005.1 1005.1 0.0
16/01:30pm 19.6 19.9 16.1 80 2.1 SSE 9 13 5 7 1005.3 1005.3 0.0
16/01:00pm 19.6 19.6 16.3 81 2.0 S 11 15 6 8 1005.6 1005.6 0.0
16/12:30pm 19.8 20.0 16.8 83 1.8 S 11 15 6 8 1005.8 1005.8 0.0
16/12:00pm 18.9 18.8 16.0 83 1.7 SSW 11 15 6 8 1005.7 1005.7 0.0
16/11:30am 19.3 19.0 16.5 84 1.7 SW 13 19 7 10 1005.7 1005.7 0.0
16/11:00am 19.1 18.7 16.3 84 1.7 SW 13 17 7 9 1005.6 1005.6 0.0
16/10:30am 18.3 18.4 16.6 90 1.0 SW 11 17 6 9 1005.7 1005.7 0.0
16/10:00am 18.1 18.6 17.5 96 0.4 SW 11 20 6 11 1005.3 1005.3 0.0
16/09:30am 16.8 17.3 16.5 98 0.2 W 9 15 5 8 1005.2 1005.2 0.0
16/09:00am 16.1 16.7 15.9 99 0.1 WNW 7 13 4 7 1005.3 1005.3 12.8
16/08:30am 14.8 15.9 14.5 98 0.2 WNW 2 4 1 2 1005.1 1005.1 12.8
16/08:00am 14.0 14.8 13.7 98 0.2 NW 2 2 1 1 1004.7 1004.7 12.8
16/07:30am 13.7 14.0 13.4 98 0.2 NNW 4 4 2 2 1005.0 1005.0 12.8
16/07:00am 11.8 11.5 11.5 98 0.2 NW 4 6 2 3 1004.7 1004.7 12.8
16/06:30am 11.2 10.4 10.9 98 0.2 NNW 6 9 3 5 1003.8 1003.8 12.8
16/06:00am 11.2 10.7 10.9 98 0.2 NNW 4 7 2 4 1003.7 1003.7 12.8
16/05:30am 11.6 11.3 11.3 98 0.2 NW 4 6 2 3 1003.6 1003.6 12.8
16/05:00am 11.7 11.0 11.4 98 0.2 WNW 6 6 3 3 1003.3 1003.3 12.8
16/04:30am 12.2 12.0 11.9 98 0.2 NW 4 6 2 3 1002.9 1002.9 12.8
16/04:00am 12.8 13.6 12.5 98 0.2 CALM 0 0 0 0 1003.2 1003.2 12.8
16/03:30am 13.3 13.9 13.0 98 0.2 N 2 4 1 2 1003.1 1003.1 12.8
16/03:00am 13.0 13.5 12.7 98 0.2 N 2 4 1 2 1003.2 1003.2 12.8
16/02:30am 13.5 14.1 13.2 98 0.2 NNW 2 2 1 1 1003.7 1003.7 12.8
16/02:00am 13.6 14.6 13.3 98 0.2 CALM 0 0 0 0 1003.7 1003.7 12.8
16/01:30am 13.8 14.5 13.5 98 0.2 N 2 4 1 2 1003.8 1003.8 12.8
16/01:00am 14.1 15.3 13.8 98 0.2 CALM 0 0 0 0 1003.6 1003.6 12.8
16/12:30am 14.1 15.3 13.8 98 0.2 CALM 0 0 0 0 1003.5 1003.5 12.8
16/12:00am 13.8 14.9 13.5 98 0.2 CALM 0 0 0 0 1003.6 1003.6 12.8
 
Date/Time
EDT
Temp
°C
App
Temp
°C
Dew
Point
°C
Rel
Hum
%
Delta-T
°C
Wind Press
QNH
hPa
Press
MSL
hPa
Rain since
9am
mm
Dir  Spd
km/h
Gust
km/h
Spd
kts
Gust
kts
15/11:30pm 14.7 15.4 14.4 98 0.2 N 4 4 2 2 1003.8 1003.8 12.8
15/11:00pm 15.1 16.3 14.8 98 0.2 N 2 4 1 2 1004.2 1004.2 12.8
15/10:30pm 15.6 16.6 15.3 98 0.2 NNW 4 7 2 4 1004.2 1004.2 12.8
15/10:00pm 15.9 16.6 15.6 98 0.2 NNW 6 7 3 4 1003.9 1003.9 12.8
15/09:30pm 16.1 16.9 15.8 98 0.2 NW 6 9 3 5 1003.6 1003.6 12.8
15/09:00pm 16.6 17.0 16.3 98 0.2 WNW 9 13 5 7 1003.3 1003.3 12.8
15/08:30pm 16.9 17.0 16.6 98 0.2 NW 11 17 6 9 1002.9 1002.9 12.8
15/08:00pm 16.9 17.8 16.6 98 0.2 NW 7 11 4 6 1003.0 1003.0 12.8
15/07:30pm 16.8 17.7 16.5 98 0.2 SE 7 11 4 6 1002.7 1002.7 12.8
15/07:00pm 17.0 18.1 16.5 97 0.3 SE 6 7 3 4 1002.0 1002.0 12.8
15/06:30pm 17.1 16.9 16.6 97 0.3 SE 13 17 7 9 1001.9 1001.9 12.8
15/06:00pm 17.3 16.3 16.7 96 0.4 SE 17 22 9 12 1002.1 1002.1 12.8
15/05:30pm 17.7 17.7 17.1 96 0.4 SE 13 17 7 9 1002.1 1002.1 12.8
15/05:00pm 17.7 18.8 17.1 96 0.4 SSE 7 15 4 8 1002.2 1002.2 12.8
15/04:30pm 17.2 18.0 16.4 95 0.5 NE 7 22 4 12 1002.3 1002.3 12.6
15/04:00pm 17.3 16.1 16.2 93 0.7 E 17 28 9 15 1003.5 1003.5 0.0
15/03:30pm 18.0 15.2 16.3 90 1.0 SE 26 33 14 18 1002.0 1002.0 0.0
15/03:00pm 19.3 17.3 17.3 88 1.2 ESE 24 32 13 17 1002.7 1002.7 0.0
15/02:30pm 19.5 17.6 17.6 89 1.2 ESE 24 33 13 18 1003.0 1003.0 0.0
15/02:00pm 19.1 17.4 17.2 89 1.2 SE 22 32 12 17 1003.1 1003.1 0.0
15/01:30pm 19.6 18.0 17.4 87 1.3 SE 22 32 12 17 1003.7 1003.7 0.0
15/01:00pm 19.0 17.2 17.0 88 1.2 SE 22 30 12 16 1004.4 1004.4 0.0
15/12:30pm 19.9 18.5 17.9 88 1.2 SE 22 30 12 16 1004.5 1004.5 0.0
15/12:00pm 19.9 19.3 18.4 91 0.9 SE 19 26 10 14 1005.0 1005.0 0.0
15/11:30am 19.3 18.4 18.1 93 0.7 SE 20 28 11 15 1004.8 1004.8 0.0
15/11:00am 19.3 18.7 18.5 95 0.5 SE 19 24 10 13 1004.5 1004.5 0.0
15/10:30am 18.3 18.2 17.8 97 0.3 SE 15 20 8 11 1005.7 1005.7 0.0
15/10:00am 18.5 19.3 18.2 98 0.2 ESE 11 15 6 8 1005.4 1005.4 0.0
15/09:30am 18.5 19.0 18.3 99 0.1 ESE 13 20 7 11 1005.7 1005.7 0.0
15/09:00am 17.8 17.2 17.6 99 0.1 ESE 17 28 9 15 1005.7 1005.7 10.8
15/08:30am 16.9 15.4 16.7 99 0.1 ESE 20 28 11 15 1005.7 1005.7 10.8
15/08:00am 17.1 17.0 16.9 99 0.1 ESE 13 20 7 11 1005.4 1005.4 10.8
15/07:30am 16.9 16.7 16.7 99 0.1 ESE 13 19 7 10 1005.1 1005.1 10.8
15/07:00am 16.5 15.4 16.3 99 0.1 ESE 17 26 9 14 1005.1 1005.1 10.8
15/06:30am 16.5 15.8 16.3 99 0.1 ESE 15 20 8 11 1005.5 1005.5 10.8
15/06:00am 16.5 15.8 16.3 99 0.1 E 15 20 8 11 1005.5 1005.5 10.6
15/05:30am 16.5 15.8 16.3 99 0.1 ESE 15 22 8 12 1005.4 1005.4 10.6
15/05:00am 16.5 15.4 16.3 99 0.1 ESE 17 26 9 14 1005.5 1005.5 10.2
15/04:30am 16.6 15.5 16.3 98 0.2 ESE 17 24 9 13 1005.5 1005.5 10.2
15/04:00am 16.6 15.5 16.3 98 0.2 ESE 17 26 9 14 1005.3 1005.3 10.2
15/03:30am 16.6 15.1 16.3 98 0.2 E 19 26 10 14 1005.5 1005.5 10.2
15/03:00am 16.5 16.5 16.2 98 0.2 ESE 11 15 6 8 1005.2 1005.2 10.2
15/02:30am 16.6 16.2 16.3 98 0.2 ESE 13 24 7 13 1005.9 1005.9 9.4
15/02:00am 16.6 15.5 16.3 98 0.2 ESE 17 24 9 13 1005.9 1005.9 9.4
15/01:30am 16.7 14.7 16.4 98 0.2 ESE 22 32 12 17 1006.0 1006.0 9.4
15/01:00am 16.7 13.5 16.4 98 0.2 ESE 28 39 15 21 1006.2 1006.2 9.4
15/12:30am 16.6 14.2 16.3 98 0.2 SE 24 33 13 18 1006.3 1006.3 9.4
15/12:00am 16.6 14.2 16.3 98 0.2 ESE 24 32 13 17 1006.6 1006.6 9.4
 
Date/Time
EDT
Temp
°C
App
Temp
°C
Dew
Point
°C
Rel
Hum
%
Delta-T
°C
Wind Press
QNH
hPa
Press
MSL
hPa
Rain since
9am
mm
Dir  Spd
km/h
Gust
km/h
Spd
kts
Gust
kts
14/11:30pm 16.6 13.4 16.3 98 0.2 ESE 28 39 15 21 1006.8 1006.8 9.4
14/11:00pm 16.6 13.0 16.3 98 0.2 SE 30 37 16 20 1007.2 1007.2 9.4
14/10:30pm 16.6 12.6 16.3 98 0.2 SE 32 41 17 22 1007.2 1007.2 9.4
14/10:00pm 16.5 12.9 16.2 98 0.2 SE 30 39 16 21 1007.0 1007.0 9.4
14/09:30pm 16.6 12.9 16.1 97 0.3 SE 30 39 16 21 1007.1 1007.1 9.4
14/09:00pm 16.6 12.9 16.1 97 0.3 SE 30 41 16 22 1007.1 1007.1 9.4
14/08:30pm 16.7 12.7 16.1 96 0.4 ESE 32 44 17 24 1006.9 1006.9 9.4
14/08:00pm 16.8 12.8 16.2 96 0.4 ESE 32 43 17 23 1006.8 1006.8 9.4
14/07:30pm 17.3 13.5 16.8 97 0.3 ESE 32 48 17 26 1006.3 1006.3 9.4
14/07:00pm 16.7 11.7 16.2 97 0.3 ESE 37 56 20 30 1005.5 1005.5 9.4
14/06:30pm 16.9 11.3 16.4 97 0.3 ESE 41 56 22 30 1005.2 1005.2 9.4
14/06:00pm 17.4 12.8 17.1 98 0.2 ESE 37 52 20 28 1005.2 1005.2 9.4
14/05:30pm 17.2 13.3 17.0 99 0.1 ESE 33 44 18 24 1005.2 1005.2 9.4
14/05:00pm 17.0 13.6 16.8 99 0.1 ESE 30 44 16 24 1005.2 1005.2 9.2
14/04:30pm 16.7 13.2 16.5 99 0.1 ESE 30 43 16 23 1005.3 1005.3 9.0
14/04:00pm 16.9 13.9 16.7 99 0.1 ESE 28 41 15 22 1005.2 1005.2 9.0
14/03:30pm 16.7 13.5 16.4 98 0.2 SE 28 39 15 21 1005.3 1005.3 8.4
14/03:00pm 16.6 13.4 16.3 98 0.2 SE 28 39 15 21 1005.3 1005.3 6.0
14/02:30pm 16.8 13.3 16.5 98 0.2 SE 30 43 16 23 1005.4 1005.4 4.8
14/02:00pm 17.7 15.0 17.5 99 0.1 SE 28 41 15 22 1005.1 1005.1 4.8
14/01:30pm 16.8 13.7 16.5 98 0.2 SE 28 35 15 19 1005.5 1005.5 4.8
14/01:00pm 16.8 12.9 16.5 98 0.2 SE 32 39 17 21 1005.4 1005.4 4.6
14/12:30pm 16.6 13.4 16.3 98 0.2 SE 28 41 15 22 1005.8 1005.8 4.0
14/12:00pm 16.7 13.9 16.4 98 0.2 SE 26 33 14 18 1005.7 1005.7 3.2
14/11:30am 16.5 12.8 16.0 97 0.3 SE 30 39 16 21 1005.8 1005.8 2.0
14/11:00am 16.5 12.8 16.0 97 0.3 ESE 30 39 16 21 1005.9 1005.9 0.0
14/10:30am 16.7 13.0 16.1 96 0.4 SE 30 44 16 24 1005.8 1005.8 0.0
14/10:00am 16.8 12.8 16.2 96 0.4 ESE 32 43 17 23 1006.0 1006.0 0.0
14/09:30am 16.7 12.5 16.1 96 0.4 SE 33 43 18 23 1005.4 1005.4 0.0
14/09:00am 16.7 11.7 16.1 96 0.4 SE 37 52 20 28 1005.1 1005.1 5.6
14/08:40am 16.7 11.7 16.1 96 0.4 SE 37 56 20 30 1004.8 1004.8 5.6
14/08:30am 16.8 11.5 16.3 97 0.3 SE 39 54 21 29 1004.5 1004.5 5.6
14/08:00am 16.7 11.4 16.2 97 0.3 SE 39 52 21 28 1003.9 1003.9 5.6
14/07:30am 16.6 11.6 16.1 97 0.3 SE 37 52 20 28 1004.0 1004.0 5.6
14/07:00am 16.7 11.4 16.4 98 0.2 ESE 39 50 21 27 1003.9 1003.9 5.6
14/06:30am 16.7 11.4 16.4 98 0.2 SE 39 50 21 27 1002.8 1002.8 5.6
14/06:00am 16.8 11.2 16.5 98 0.2 SE 41 56 22 30 1002.3 1002.3 5.6
14/05:30am 16.9 11.0 16.6 98 0.2 SE 43 56 23 30 1001.7 1001.7 5.6
14/05:00am 16.9 11.0 16.6 98 0.2 ESE 43 59 23 32 1001.1 1001.1 5.6
14/04:30am 16.9 12.1 16.6 98 0.2 ESE 37 50 20 27 1001.0 1001.0 5.6
14/04:24am 16.9 11.7 16.6 98 0.2 ESE 39 59 21 32 1000.8 1000.8 5.6
14/04:00am 16.9 11.7 16.6 98 0.2 ESE 39 54 21 29 1000.6 1000.6 5.6
14/03:44am 16.9 11.3 16.6 98 0.2 ESE 41 59 22 32 1000.4 1000.4 5.6
14/03:30am 16.9 12.1 16.6 98 0.2 ESE 37 52 20 28 1000.4 1000.4 5.6
14/03:00am 17.0 11.5 16.7 98 0.2 ESE 41 57 22 31 1000.1 1000.1 5.6
14/02:46am 17.0 11.5 16.7 98 0.2 ESE 41 61 22 33 1000.0 1000.0 5.6
14/02:30am 17.0 11.9 16.7 98 0.2 ESE 39 54 21 29 999.8 999.8 5.6
14/02:00am 17.0 11.5 16.7 98 0.2 SE 41 59 22 32 999.5 999.5 5.6
14/01:59am 17.0 11.5 16.7 98 0.2 SE 41 59 22 32 999.5 999.5 5.6
14/01:30am 17.1 11.2 16.8 98 0.2 SE 43 56 23 30 999.2 999.2 5.6
14/01:00am 17.1 11.6 16.8 98 0.2 SE 41 56 22 30 999.1 999.1 5.6
14/12:30am 16.9 12.1 16.6 98 0.2 SE 37 48 20 26 998.9 998.9 5.6
14/12:00am 16.9 12.9 16.6 98 0.2 SSE 33 43 18 23 998.9 998.9 5.4
 
Date/Time
EDT
Temp
°C
App
Temp
°C
Dew
Point
°C
Rel
Hum
%
Delta-T
°C
Wind Press
QNH
hPa
Press
MSL
hPa
Rain since
9am
mm
Dir  Spd
km/h
Gust
km/h
Spd
kts
Gust
kts
13/11:30pm 16.8 13.7 16.5 98 0.2 SSE 28 37 15 20 999.0 999.0 4.6
13/11:00pm 16.8 14.4 16.3 97 0.3 SSE 24 32 13 17 999.2 999.2 3.6
13/10:30pm 16.6 14.5 16.1 97 0.3 S 22 33 12 18 999.4 999.4 3.6
13/10:00pm 16.3 14.6 15.7 96 0.4 S 19 24 10 13 999.4 999.4 3.4
13/09:30pm 16.1 15.0 15.3 95 0.5 SSW 15 20 8 11 999.6 999.6 3.4

Other Formats:

Comma delimited format used in spreadsheet applications
http://www.bom.gov.au/fwo/IDV60801/IDV60801.94830.axf

JavaScript Object Notation format (JSON) in row-major order
http://www.bom.gov.au/fwo/IDV60801/IDV60801.94830.json